sensor_id;sensor_type;location;lat;lon;timestamp;P1;durP1;ratioP1;P2;durP2;ratioP2
77214;SDS011;66210;53.282;9.864;2023-07-29T00:00:14;3.83;;;2.47;;
77214;SDS011;66210;53.282;9.864;2023-07-29T00:02:41;3.08;;;2.65;;
77214;SDS011;66210;53.282;9.864;2023-07-29T00:05:08;7.10;;;3.20;;
77214;SDS011;66210;53.282;9.864;2023-07-29T00:07:35;4.95;;;2.75;;
77214;SDS011;66210;53.282;9.864;2023-07-29T00:10:02;3.75;;;2.80;;
77214;SDS011;66210;53.282;9.864;2023-07-29T00:12:29;3.70;;;2.75;;
77214;SDS011;66210;53.282;9.864;2023-07-29T00:14:56;5.25;;;3.20;;
77214;SDS011;66210;53.282;9.864;2023-07-29T00:17:23;3.45;;;2.80;;
77214;SDS011;66210;53.282;9.864;2023-07-29T00:19:50;3.97;;;2.88;;
77214;SDS011;66210;53.282;9.864;2023-07-29T00:22:16;6.10;;;3.58;;
77214;SDS011;66210;53.282;9.864;2023-07-29T00:24:43;8.57;;;3.42;;
77214;SDS011;66210;53.282;9.864;2023-07-29T00:27:10;5.85;;;2.53;;
77214;SDS011;66210;53.282;9.864;2023-07-29T00:29:37;3.03;;;2.40;;
77214;SDS011;66210;53.282;9.864;2023-07-29T00:32:04;2.83;;;2.30;;
77214;SDS011;66210;53.282;9.864;2023-07-29T00:34:31;6.90;;;3.50;;
77214;SDS011;66210;53.282;9.864;2023-07-29T00:36:58;7.93;;;4.43;;
77214;SDS011;66210;53.282;9.864;2023-07-29T00:39:24;7.25;;;4.20;;
77214;SDS011;66210;53.282;9.864;2023-07-29T00:41:51;4.47;;;3.42;;
77214;SDS011;66210;53.282;9.864;2023-07-29T00:44:18;5.68;;;4.15;;
77214;SDS011;66210;53.282;9.864;2023-07-29T00:46:45;5.70;;;3.90;;
77214;SDS011;66210;53.282;9.864;2023-07-29T00:49:13;11.05;;;3.85;;
77214;SDS011;66210;53.282;9.864;2023-07-29T00:51:40;6.80;;;4.20;;
77214;SDS011;66210;53.282;9.864;2023-07-29T00:54:07;10.90;;;4.35;;
77214;SDS011;66210;53.282;9.864;2023-07-29T00:56:34;7.97;;;4.68;;
77214;SDS011;66210;53.282;9.864;2023-07-29T00:59:02;7.38;;;3.85;;
77214;SDS011;66210;53.282;9.864;2023-07-29T01:01:31;5.40;;;3.42;;
77214;SDS011;66210;53.282;9.864;2023-07-29T01:03:58;8.40;;;3.88;;
77214;SDS011;66210;53.282;9.864;2023-07-29T01:09:17;4.35;;;3.22;;
77214;SDS011;66210;53.282;9.864;2023-07-29T01:12:07;5.97;;;3.53;;
77214;SDS011;66210;53.282;9.864;2023-07-29T01:14:39;6.65;;;2.97;;
77214;SDS011;66210;53.282;9.864;2023-07-29T01:17:13;5.03;;;3.33;;
77214;SDS011;66210;53.282;9.864;2023-07-29T01:22:40;5.85;;;2.70;;
77214;SDS011;66210;53.282;9.864;2023-07-29T01:25:08;6.00;;;2.75;;
77214;SDS011;66210;53.282;9.864;2023-07-29T01:27:34;4.95;;;2.60;;
77214;SDS011;66210;53.282;9.864;2023-07-29T01:30:02;7.65;;;3.17;;
77214;SDS011;66210;53.282;9.864;2023-07-29T01:32:36;3.47;;;2.95;;
77214;SDS011;66210;53.282;9.864;2023-07-29T01:35:19;5.30;;;3.10;;
77214;SDS011;66210;53.282;9.864;2023-07-29T01:37:49;3.05;;;2.53;;
77214;SDS011;66210;53.282;9.864;2023-07-29T01:40:20;7.18;;;3.53;;
77214;SDS011;66210;53.282;9.864;2023-07-29T01:42:49;5.57;;;2.80;;
77214;SDS011;66210;53.282;9.864;2023-07-29T01:45:17;5.90;;;2.83;;
77214;SDS011;66210;53.282;9.864;2023-07-29T01:47:44;5.03;;;3.25;;
77214;SDS011;66210;53.282;9.864;2023-07-29T01:50:11;4.57;;;3.10;;
77214;SDS011;66210;53.282;9.864;2023-07-29T01:52:38;4.45;;;3.08;;
77214;SDS011;66210;53.282;9.864;2023-07-29T01:55:05;7.15;;;2.63;;
77214;SDS011;66210;53.282;9.864;2023-07-29T01:57:32;3.47;;;2.67;;
77214;SDS011;66210;53.282;9.864;2023-07-29T01:59:59;6.40;;;3.20;;
77214;SDS011;66210;53.282;9.864;2023-07-29T02:02:26;4.32;;;2.97;;
77214;SDS011;66210;53.282;9.864;2023-07-29T02:04:52;3.75;;;2.95;;
77214;SDS011;66210;53.282;9.864;2023-07-29T02:07:19;4.38;;;2.88;;
77214;SDS011;66210;53.282;9.864;2023-07-29T02:09:46;4.70;;;2.75;;
77214;SDS011;66210;53.282;9.864;2023-07-29T02:12:13;3.72;;;2.85;;
77214;SDS011;66210;53.282;9.864;2023-07-29T02:14:40;6.47;;;3.00;;
77214;SDS011;66210;53.282;9.864;2023-07-29T02:17:06;5.00;;;2.60;;
77214;SDS011;66210;53.282;9.864;2023-07-29T02:19:33;4.20;;;3.17;;
77214;SDS011;66210;53.282;9.864;2023-07-29T02:22:00;8.05;;;3.35;;
77214;SDS011;66210;53.282;9.864;2023-07-29T02:24:27;7.88;;;3.90;;
77214;SDS011;66210;53.282;9.864;2023-07-29T02:26:54;3.33;;;2.70;;
77214;SDS011;66210;53.282;9.864;2023-07-29T02:29:21;6.43;;;3.13;;
77214;SDS011;66210;53.282;9.864;2023-07-29T02:31:48;3.65;;;2.80;;
77214;SDS011;66210;53.282;9.864;2023-07-29T02:34:14;5.95;;;2.95;;
77214;SDS011;66210;53.282;9.864;2023-07-29T02:36:41;6.00;;;3.20;;
77214;SDS011;66210;53.282;9.864;2023-07-29T02:39:09;6.75;;;3.05;;
77214;SDS011;66210;53.282;9.864;2023-07-29T02:41:35;4.40;;;3.42;;
77214;SDS011;66210;53.282;9.864;2023-07-29T02:44:02;5.10;;;3.47;;
77214;SDS011;66210;53.282;9.864;2023-07-29T02:46:29;7.82;;;3.15;;
77214;SDS011;66210;53.282;9.864;2023-07-29T02:48:56;9.40;;;3.15;;
77214;SDS011;66210;53.282;9.864;2023-07-29T02:51:23;3.55;;;3.10;;
77214;SDS011;66210;53.282;9.864;2023-07-29T02:53:50;5.57;;;3.25;;
77214;SDS011;66210;53.282;9.864;2023-07-29T02:56:16;8.55;;;3.00;;
77214;SDS011;66210;53.282;9.864;2023-07-29T02:58:43;3.40;;;2.42;;
77214;SDS011;66210;53.282;9.864;2023-07-29T03:01:11;3.58;;;2.60;;
77214;SDS011;66210;53.282;9.864;2023-07-29T03:03:38;3.22;;;2.70;;
77214;SDS011;66210;53.282;9.864;2023-07-29T03:06:06;5.00;;;3.03;;
77214;SDS011;66210;53.282;9.864;2023-07-29T03:08:35;5.45;;;2.80;;
77214;SDS011;66210;53.282;9.864;2023-07-29T03:11:06;4.05;;;2.47;;
77214;SDS011;66210;53.282;9.864;2023-07-29T03:13:34;4.32;;;3.20;;
77214;SDS011;66210;53.282;9.864;2023-07-29T03:16:07;9.48;;;3.50;;
77214;SDS011;66210;53.282;9.864;2023-07-29T03:18:38;5.55;;;3.33;;
77214;SDS011;66210;53.282;9.864;2023-07-29T03:21:05;6.10;;;3.80;;
77214;SDS011;66210;53.282;9.864;2023-07-29T03:23:33;3.80;;;3.30;;
77214;SDS011;66210;53.282;9.864;2023-07-29T03:26:00;6.78;;;4.38;;
77214;SDS011;66210;53.282;9.864;2023-07-29T03:28:32;6.60;;;3.95;;
77214;SDS011;66210;53.282;9.864;2023-07-29T03:30:59;4.63;;;3.75;;
77214;SDS011;66210;53.282;9.864;2023-07-29T03:33:26;6.38;;;4.38;;
77214;SDS011;66210;53.282;9.864;2023-07-29T03:35:53;6.47;;;4.45;;
77214;SDS011;66210;53.282;9.864;2023-07-29T03:38:20;7.38;;;4.75;;
77214;SDS011;66210;53.282;9.864;2023-07-29T03:40:47;9.73;;;5.88;;
77214;SDS011;66210;53.282;9.864;2023-07-29T03:43:14;9.15;;;6.15;;
77214;SDS011;66210;53.282;9.864;2023-07-29T03:45:41;9.18;;;4.93;;
77214;SDS011;66210;53.282;9.864;2023-07-29T03:48:08;12.40;;;5.88;;
77214;SDS011;66210;53.282;9.864;2023-07-29T03:50:35;5.57;;;4.95;;
77214;SDS011;66210;53.282;9.864;2023-07-29T03:53:05;14.48;;;6.90;;
77214;SDS011;66210;53.282;9.864;2023-07-29T03:55:32;8.27;;;6.18;;
77214;SDS011;66210;53.282;9.864;2023-07-29T03:57:59;10.80;;;6.35;;
77214;SDS011;66210;53.282;9.864;2023-07-29T04:00:26;10.23;;;7.65;;
77214;SDS011;66210;53.282;9.864;2023-07-29T04:02:54;12.25;;;7.88;;
77214;SDS011;66210;53.282;9.864;2023-07-29T04:05:20;10.98;;;7.80;;
77214;SDS011;66210;53.282;9.864;2023-07-29T04:07:47;11.93;;;8.45;;
77214;SDS011;66210;53.282;9.864;2023-07-29T04:10:14;11.25;;;7.63;;
77214;SDS011;66210;53.282;9.864;2023-07-29T04:12:43;12.60;;;9.23;;
77214;SDS011;66210;53.282;9.864;2023-07-29T04:15:10;17.75;;;10.10;;
77214;SDS011;66210;53.282;9.864;2023-07-29T04:17:36;16.80;;;10.32;;
77214;SDS011;66210;53.282;9.864;2023-07-29T04:20:03;12.43;;;9.75;;
77214;SDS011;66210;53.282;9.864;2023-07-29T04:22:30;17.13;;;11.07;;
77214;SDS011;66210;53.282;9.864;2023-07-29T04:24:57;20.98;;;11.27;;
77214;SDS011;66210;53.282;9.864;2023-07-29T04:27:24;14.13;;;10.75;;
77214;SDS011;66210;53.282;9.864;2023-07-29T04:29:51;14.73;;;11.13;;
77214;SDS011;66210;53.282;9.864;2023-07-29T04:32:18;18.30;;;9.60;;
77214;SDS011;66210;53.282;9.864;2023-07-29T04:34:45;22.02;;;11.70;;
77214;SDS011;66210;53.282;9.864;2023-07-29T04:37:11;17.17;;;11.65;;
77214;SDS011;66210;53.282;9.864;2023-07-29T04:39:38;15.43;;;10.52;;
77214;SDS011;66210;53.282;9.864;2023-07-29T04:42:05;21.58;;;12.15;;
77214;SDS011;66210;53.282;9.864;2023-07-29T04:44:32;14.60;;;11.07;;
77214;SDS011;66210;53.282;9.864;2023-07-29T04:46:58;15.95;;;11.38;;
77214;SDS011;66210;53.282;9.864;2023-07-29T04:49:25;18.63;;;12.20;;
77214;SDS011;66210;53.282;9.864;2023-07-29T04:51:52;16.80;;;10.73;;
77214;SDS011;66210;53.282;9.864;2023-07-29T04:54:19;14.88;;;10.95;;
77214;SDS011;66210;53.282;9.864;2023-07-29T04:56:47;19.70;;;12.27;;
77214;SDS011;66210;53.282;9.864;2023-07-29T04:59:14;15.60;;;11.65;;
77214;SDS011;66210;53.282;9.864;2023-07-29T05:01:40;13.45;;;10.50;;
77214;SDS011;66210;53.282;9.864;2023-07-29T05:04:09;15.65;;;11.20;;
77214;SDS011;66210;53.282;9.864;2023-07-29T05:06:37;15.57;;;9.77;;
77214;SDS011;66210;53.282;9.864;2023-07-29T05:09:14;15.00;;;10.27;;
77214;SDS011;66210;53.282;9.864;2023-07-29T05:11:42;15.18;;;8.95;;
77214;SDS011;66210;53.282;9.864;2023-07-29T05:14:15;14.45;;;10.63;;
77214;SDS011;66210;53.282;9.864;2023-07-29T05:16:43;17.13;;;10.88;;
77214;SDS011;66210;53.282;9.864;2023-07-29T05:19:10;17.25;;;11.27;;
77214;SDS011;66210;53.282;9.864;2023-07-29T05:21:38;14.48;;;10.20;;
77214;SDS011;66210;53.282;9.864;2023-07-29T05:24:06;16.77;;;10.88;;
77214;SDS011;66210;53.282;9.864;2023-07-29T05:26:32;15.32;;;10.63;;
77214;SDS011;66210;53.282;9.864;2023-07-29T05:29:00;14.23;;;8.63;;
77214;SDS011;66210;53.282;9.864;2023-07-29T05:31:27;13.32;;;9.55;;
77214;SDS011;66210;53.282;9.864;2023-07-29T05:33:54;16.65;;;10.32;;
77214;SDS011;66210;53.282;9.864;2023-07-29T05:36:21;14.48;;;10.85;;
77214;SDS011;66210;53.282;9.864;2023-07-29T05:38:48;15.15;;;10.55;;
77214;SDS011;66210;53.282;9.864;2023-07-29T05:41:14;20.65;;;11.13;;
77214;SDS011;66210;53.282;9.864;2023-07-29T05:43:41;13.65;;;10.02;;
77214;SDS011;66210;53.282;9.864;2023-07-29T05:46:09;14.93;;;10.30;;
77214;SDS011;66210;53.282;9.864;2023-07-29T05:48:37;20.65;;;10.75;;
77214;SDS011;66210;53.282;9.864;2023-07-29T05:51:03;16.67;;;11.15;;
77214;SDS011;66210;53.282;9.864;2023-07-29T05:53:31;14.00;;;10.43;;
77214;SDS011;66210;53.282;9.864;2023-07-29T05:55:58;24.08;;;11.00;;
77214;SDS011;66210;53.282;9.864;2023-07-29T05:58:25;17.10;;;9.88;;
77214;SDS011;66210;53.282;9.864;2023-07-29T06:00:52;18.13;;;10.35;;
77214;SDS011;66210;53.282;9.864;2023-07-29T06:03:19;15.40;;;9.98;;
77214;SDS011;66210;53.282;9.864;2023-07-29T06:05:46;16.15;;;9.10;;
77214;SDS011;66210;53.282;9.864;2023-07-29T06:08:13;15.88;;;7.95;;
77214;SDS011;66210;53.282;9.864;2023-07-29T06:10:40;15.43;;;10.13;;
77214;SDS011;66210;53.282;9.864;2023-07-29T06:13:06;15.20;;;9.93;;
77214;SDS011;66210;53.282;9.864;2023-07-29T06:15:34;13.40;;;10.07;;
77214;SDS011;66210;53.282;9.864;2023-07-29T06:18:00;16.10;;;9.80;;
77214;SDS011;66210;53.282;9.864;2023-07-29T06:20:28;12.20;;;9.10;;
77214;SDS011;66210;53.282;9.864;2023-07-29T06:22:55;14.57;;;9.52;;
77214;SDS011;66210;53.282;9.864;2023-07-29T06:25:21;17.13;;;10.50;;
77214;SDS011;66210;53.282;9.864;2023-07-29T06:27:49;13.45;;;9.63;;
77214;SDS011;66210;53.282;9.864;2023-07-29T06:30:15;13.75;;;8.55;;
77214;SDS011;66210;53.282;9.864;2023-07-29T06:32:42;13.15;;;8.30;;
77214;SDS011;66210;53.282;9.864;2023-07-29T06:35:09;14.60;;;8.50;;
77214;SDS011;66210;53.282;9.864;2023-07-29T06:37:36;15.32;;;9.25;;
77214;SDS011;66210;53.282;9.864;2023-07-29T06:40:03;10.93;;;7.45;;
77214;SDS011;66210;53.282;9.864;2023-07-29T06:42:30;16.25;;;8.57;;
77214;SDS011;66210;53.282;9.864;2023-07-29T06:44:57;11.02;;;7.97;;
77214;SDS011;66210;53.282;9.864;2023-07-29T06:47:23;9.63;;;7.20;;
77214;SDS011;66210;53.282;9.864;2023-07-29T06:49:50;8.93;;;6.05;;
77214;SDS011;66210;53.282;9.864;2023-07-29T06:52:17;13.20;;;7.55;;
77214;SDS011;66210;53.282;9.864;2023-07-29T06:54:44;10.05;;;6.40;;
77214;SDS011;66210;53.282;9.864;2023-07-29T06:57:10;12.27;;;5.95;;
77214;SDS011;66210;53.282;9.864;2023-07-29T06:59:37;12.05;;;6.38;;
77214;SDS011;66210;53.282;9.864;2023-07-29T07:02:04;9.13;;;6.15;;
77214;SDS011;66210;53.282;9.864;2023-07-29T07:04:32;6.22;;;4.95;;
77214;SDS011;66210;53.282;9.864;2023-07-29T07:06:58;12.27;;;5.65;;
77214;SDS011;66210;53.282;9.864;2023-07-29T07:09:25;11.25;;;5.25;;
77214;SDS011;66210;53.282;9.864;2023-07-29T07:11:52;7.07;;;5.25;;
77214;SDS011;66210;53.282;9.864;2023-07-29T07:14:19;7.22;;;5.43;;
77214;SDS011;66210;53.282;9.864;2023-07-29T07:16:45;5.70;;;4.63;;
77214;SDS011;66210;53.282;9.864;2023-07-29T07:19:12;9.20;;;5.80;;
77214;SDS011;66210;53.282;9.864;2023-07-29T07:21:39;8.55;;;4.72;;
77214;SDS011;66210;53.282;9.864;2023-07-29T07:24:06;8.52;;;5.38;;
77214;SDS011;66210;53.282;9.864;2023-07-29T07:26:34;6.75;;;4.95;;
77214;SDS011;66210;53.282;9.864;2023-07-29T07:29:01;5.65;;;4.47;;
77214;SDS011;66210;53.282;9.864;2023-07-29T07:31:28;7.80;;;5.15;;
77214;SDS011;66210;53.282;9.864;2023-07-29T07:33:54;9.85;;;4.95;;
77214;SDS011;66210;53.282;9.864;2023-07-29T07:36:21;9.63;;;5.28;;
77214;SDS011;66210;53.282;9.864;2023-07-29T07:38:48;7.18;;;5.10;;
77214;SDS011;66210;53.282;9.864;2023-07-29T07:41:15;6.20;;;4.85;;
77214;SDS011;66210;53.282;9.864;2023-07-29T07:43:41;6.90;;;4.15;;
77214;SDS011;66210;53.282;9.864;2023-07-29T07:46:08;9.95;;;4.38;;
77214;SDS011;66210;53.282;9.864;2023-07-29T07:48:35;9.73;;;4.90;;
77214;SDS011;66210;53.282;9.864;2023-07-29T07:51:09;6.60;;;5.05;;
77214;SDS011;66210;53.282;9.864;2023-07-29T07:53:39;6.85;;;5.35;;
77214;SDS011;66210;53.282;9.864;2023-07-29T07:56:06;7.32;;;5.38;;
77214;SDS011;66210;53.282;9.864;2023-07-29T07:58:34;9.20;;;6.88;;
77214;SDS011;66210;53.282;9.864;2023-07-29T08:01:04;10.95;;;7.07;;
77214;SDS011;66210;53.282;9.864;2023-07-29T08:03:35;9.50;;;6.88;;
77214;SDS011;66210;53.282;9.864;2023-07-29T08:06:02;8.43;;;6.45;;
77214;SDS011;66210;53.282;9.864;2023-07-29T08:08:29;8.07;;;6.47;;
77214;SDS011;66210;53.282;9.864;2023-07-29T08:10:56;11.35;;;7.45;;
77214;SDS011;66210;53.282;9.864;2023-07-29T08:13:24;8.88;;;6.80;;
77214;SDS011;66210;53.282;9.864;2023-07-29T08:15:51;7.90;;;6.90;;
77214;SDS011;66210;53.282;9.864;2023-07-29T08:18:19;14.23;;;7.75;;
77214;SDS011;66210;53.282;9.864;2023-07-29T08:20:56;11.93;;;7.85;;
77214;SDS011;66210;53.282;9.864;2023-07-29T08:23:25;10.45;;;8.13;;
77214;SDS011;66210;53.282;9.864;2023-07-29T08:25:55;10.07;;;8.10;;
77214;SDS011;66210;53.282;9.864;2023-07-29T08:29:01;10.93;;;8.82;;
77214;SDS011;66210;53.282;9.864;2023-07-29T08:31:21;12.85;;;8.65;;
77214;SDS011;66210;53.282;9.864;2023-07-29T08:33:47;12.48;;;8.80;;
77214;SDS011;66210;53.282;9.864;2023-07-29T08:36:14;12.50;;;8.38;;
77214;SDS011;66210;53.282;9.864;2023-07-29T08:38:41;14.23;;;9.18;;
77214;SDS011;66210;53.282;9.864;2023-07-29T08:44:01;11.80;;;9.35;;
77214;SDS011;66210;53.282;9.864;2023-07-29T08:46:39;11.77;;;9.65;;
77214;SDS011;66210;53.282;9.864;2023-07-29T08:49:06;14.65;;;10.35;;
77214;SDS011;66210;53.282;9.864;2023-07-29T08:51:34;11.68;;;9.05;;
77214;SDS011;66210;53.282;9.864;2023-07-29T08:54:01;12.98;;;8.32;;
77214;SDS011;66210;53.282;9.864;2023-07-29T08:56:28;14.75;;;9.82;;
77214;SDS011;66210;53.282;9.864;2023-07-29T08:58:56;10.45;;;7.05;;
77214;SDS011;66210;53.282;9.864;2023-07-29T09:01:24;11.70;;;8.35;;
77214;SDS011;66210;53.282;9.864;2023-07-29T09:03:51;12.07;;;9.05;;
77214;SDS011;66210;53.282;9.864;2023-07-29T09:06:18;13.77;;;9.73;;
77214;SDS011;66210;53.282;9.864;2023-07-29T09:08:47;11.52;;;9.98;;
77214;SDS011;66210;53.282;9.864;2023-07-29T09:11:15;13.23;;;9.18;;
77214;SDS011;66210;53.282;9.864;2023-07-29T09:13:43;12.77;;;9.75;;
77214;SDS011;66210;53.282;9.864;2023-07-29T09:16:10;12.55;;;8.93;;
77214;SDS011;66210;53.282;9.864;2023-07-29T09:18:37;10.02;;;8.18;;
77214;SDS011;66210;53.282;9.864;2023-07-29T09:21:04;10.05;;;7.68;;
77214;SDS011;66210;53.282;9.864;2023-07-29T09:23:44;12.15;;;7.30;;
77214;SDS011;66210;53.282;9.864;2023-07-29T09:26:11;8.63;;;6.57;;
77214;SDS011;66210;53.282;9.864;2023-07-29T09:28:38;11.10;;;6.72;;
77214;SDS011;66210;53.282;9.864;2023-07-29T09:31:06;9.85;;;7.13;;
77214;SDS011;66210;53.282;9.864;2023-07-29T09:33:44;9.80;;;6.68;;
77214;SDS011;66210;53.282;9.864;2023-07-29T09:36:11;6.70;;;5.95;;
77214;SDS011;66210;53.282;9.864;2023-07-29T09:38:38;7.75;;;6.85;;
77214;SDS011;66210;53.282;9.864;2023-07-29T09:41:05;10.38;;;6.72;;
77214;SDS011;66210;53.282;9.864;2023-07-29T09:43:33;7.88;;;6.28;;
77214;SDS011;66210;53.282;9.864;2023-07-29T09:46:04;9.68;;;6.60;;
77214;SDS011;66210;53.282;9.864;2023-07-29T09:48:34;10.10;;;6.22;;
77214;SDS011;66210;53.282;9.864;2023-07-29T09:51:11;7.53;;;6.00;;
77214;SDS011;66210;53.282;9.864;2023-07-29T09:53:42;11.93;;;5.68;;
77214;SDS011;66210;53.282;9.864;2023-07-29T09:56:15;10.98;;;5.60;;
77214;SDS011;66210;53.282;9.864;2023-07-29T09:58:43;7.03;;;5.82;;
77214;SDS011;66210;53.282;9.864;2023-07-29T10:01:12;6.43;;;5.32;;
77214;SDS011;66210;53.282;9.864;2023-07-29T10:03:39;7.47;;;5.15;;
77214;SDS011;66210;53.282;9.864;2023-07-29T10:06:07;5.43;;;4.65;;
77214;SDS011;66210;53.282;9.864;2023-07-29T10:08:34;6.70;;;4.93;;
77214;SDS011;66210;53.282;9.864;2023-07-29T10:11:08;7.55;;;4.45;;
77214;SDS011;66210;53.282;9.864;2023-07-29T10:13:36;5.45;;;4.32;;
77214;SDS011;66210;53.282;9.864;2023-07-29T10:16:04;9.10;;;4.18;;
77214;SDS011;66210;53.282;9.864;2023-07-29T10:18:32;6.55;;;4.30;;
77214;SDS011;66210;53.282;9.864;2023-07-29T10:21:00;6.50;;;4.32;;
77214;SDS011;66210;53.282;9.864;2023-07-29T10:23:27;8.23;;;4.13;;
77214;SDS011;66210;53.282;9.864;2023-07-29T10:26:01;5.22;;;3.83;;
77214;SDS011;66210;53.282;9.864;2023-07-29T10:28:32;4.90;;;4.03;;
77214;SDS011;66210;53.282;9.864;2023-07-29T10:31:01;5.90;;;3.75;;
77214;SDS011;66210;53.282;9.864;2023-07-29T10:33:30;4.35;;;3.58;;
77214;SDS011;66210;53.282;9.864;2023-07-29T10:36:00;7.00;;;4.00;;
77214;SDS011;66210;53.282;9.864;2023-07-29T10:38:28;5.18;;;3.70;;
77214;SDS011;66210;53.282;9.864;2023-07-29T10:40:56;9.98;;;4.28;;
77214;SDS011;66210;53.282;9.864;2023-07-29T10:43:25;6.38;;;3.58;;
77214;SDS011;66210;53.282;9.864;2023-07-29T10:45:53;8.57;;;3.53;;
77214;SDS011;66210;53.282;9.864;2023-07-29T10:48:40;5.60;;;3.20;;
77214;SDS011;66210;53.282;9.864;2023-07-29T10:54:00;5.32;;;2.83;;
77214;SDS011;66210;53.282;9.864;2023-07-29T10:56:36;3.85;;;2.80;;
77214;SDS011;66210;53.282;9.864;2023-07-29T11:01:40;3.72;;;2.63;;
77214;SDS011;66210;53.282;9.864;2023-07-29T11:04:22;3.75;;;2.63;;
77214;SDS011;66210;53.282;9.864;2023-07-29T11:15:16;5.28;;;3.05;;
77214;SDS011;66210;53.282;9.864;2023-07-29T11:17:48;3.53;;;2.65;;
77214;SDS011;66210;53.282;9.864;2023-07-29T11:20:31;6.18;;;2.97;;
77214;SDS011;66210;53.282;9.864;2023-07-29T11:23:02;5.47;;;3.30;;
77214;SDS011;66210;53.282;9.864;2023-07-29T11:25:30;4.40;;;3.35;;
77214;SDS011;66210;53.282;9.864;2023-07-29T11:27:59;5.93;;;3.60;;
77214;SDS011;66210;53.282;9.864;2023-07-29T11:30:32;11.88;;;4.03;;
77214;SDS011;66210;53.282;9.864;2023-07-29T11:33:00;5.10;;;3.30;;
77214;SDS011;66210;53.282;9.864;2023-07-29T11:35:27;7.85;;;3.97;;
77214;SDS011;66210;53.282;9.864;2023-07-29T11:37:55;7.50;;;3.53;;
77214;SDS011;66210;53.282;9.864;2023-07-29T11:40:25;4.80;;;4.07;;
77214;SDS011;66210;53.282;9.864;2023-07-29T11:42:52;6.57;;;3.30;;
77214;SDS011;66210;53.282;9.864;2023-07-29T11:45:19;7.22;;;3.50;;
77214;SDS011;66210;53.282;9.864;2023-07-29T11:47:51;7.30;;;4.18;;
77214;SDS011;66210;53.282;9.864;2023-07-29T11:50:17;4.18;;;3.28;;
77214;SDS011;66210;53.282;9.864;2023-07-29T11:52:45;25.27;;;3.75;;
77214;SDS011;66210;53.282;9.864;2023-07-29T11:55:13;111.45;;;6.80;;
77214;SDS011;66210;53.282;9.864;2023-07-29T11:57:41;158.60;;;10.18;;
77214;SDS011;66210;53.282;9.864;2023-07-29T12:00:10;16.98;;;3.78;;
77214;SDS011;66210;53.282;9.864;2023-07-29T12:02:39;11.77;;;3.60;;
77214;SDS011;66210;53.282;9.864;2023-07-29T12:05:08;10.38;;;3.55;;
77214;SDS011;66210;53.282;9.864;2023-07-29T12:07:35;6.32;;;3.10;;
77214;SDS011;66210;53.282;9.864;2023-07-29T12:10:04;5.55;;;3.22;;
77214;SDS011;66210;53.282;9.864;2023-07-29T12:12:32;4.25;;;3.20;;
77214;SDS011;66210;53.282;9.864;2023-07-29T12:14:59;4.35;;;2.72;;
77214;SDS011;66210;53.282;9.864;2023-07-29T12:17:26;4.20;;;2.80;;
77214;SDS011;66210;53.282;9.864;2023-07-29T12:19:54;3.75;;;2.60;;
77214;SDS011;66210;53.282;9.864;2023-07-29T12:22:21;5.63;;;2.78;;
77214;SDS011;66210;53.282;9.864;2023-07-29T12:24:49;3.55;;;2.88;;
77214;SDS011;66210;53.282;9.864;2023-07-29T12:27:18;4.07;;;2.30;;
77214;SDS011;66210;53.282;9.864;2023-07-29T12:29:48;3.28;;;2.45;;
77214;SDS011;66210;53.282;9.864;2023-07-29T12:32:18;4.38;;;2.70;;
77214;SDS011;66210;53.282;9.864;2023-07-29T12:34:45;3.38;;;2.60;;
77214;SDS011;66210;53.282;9.864;2023-07-29T12:37:11;3.80;;;2.53;;
77214;SDS011;66210;53.282;9.864;2023-07-29T12:39:41;3.15;;;2.70;;
77214;SDS011;66210;53.282;9.864;2023-07-29T12:42:08;3.17;;;2.40;;
77214;SDS011;66210;53.282;9.864;2023-07-29T12:44:38;4.35;;;2.20;;
77214;SDS011;66210;53.282;9.864;2023-07-29T12:47:05;2.50;;;2.10;;
77214;SDS011;66210;53.282;9.864;2023-07-29T12:49:32;3.65;;;2.30;;
77214;SDS011;66210;53.282;9.864;2023-07-29T12:51:59;2.90;;;1.80;;
77214;SDS011;66210;53.282;9.864;2023-07-29T12:54:26;2.70;;;2.10;;
77214;SDS011;66210;53.282;9.864;2023-07-29T12:56:53;2.83;;;2.08;;
77214;SDS011;66210;53.282;9.864;2023-07-29T12:59:19;3.20;;;2.40;;
77214;SDS011;66210;53.282;9.864;2023-07-29T13:01:46;3.40;;;2.05;;
77214;SDS011;66210;53.282;9.864;2023-07-29T13:04:12;3.75;;;2.40;;
77214;SDS011;66210;53.282;9.864;2023-07-29T13:06:39;7.30;;;2.13;;
77214;SDS011;66210;53.282;9.864;2023-07-29T13:09:06;4.10;;;2.45;;
77214;SDS011;66210;53.282;9.864;2023-07-29T13:11:33;3.25;;;2.13;;
77214;SDS011;66210;53.282;9.864;2023-07-29T13:14:00;109.85;;;5.78;;
77214;SDS011;66210;53.282;9.864;2023-07-29T13:16:27;12.18;;;2.65;;
77214;SDS011;66210;53.282;9.864;2023-07-29T13:18:55;3.08;;;2.30;;
77214;SDS011;66210;53.282;9.864;2023-07-29T13:21:22;5.15;;;2.33;;
77214;SDS011;66210;53.282;9.864;2023-07-29T13:23:51;3.53;;;2.05;;
77214;SDS011;66210;53.282;9.864;2023-07-29T13:26:19;3.00;;;2.20;;
77214;SDS011;66210;53.282;9.864;2023-07-29T13:28:45;4.28;;;2.00;;
77214;SDS011;66210;53.282;9.864;2023-07-29T13:31:12;7.20;;;2.53;;
77214;SDS011;66210;53.282;9.864;2023-07-29T13:33:39;4.22;;;2.28;;
77214;SDS011;66210;53.282;9.864;2023-07-29T13:36:06;2.78;;;2.20;;
77214;SDS011;66210;53.282;9.864;2023-07-29T13:38:34;5.13;;;2.10;;
77214;SDS011;66210;53.282;9.864;2023-07-29T13:41:01;2.70;;;2.20;;
77214;SDS011;66210;53.282;9.864;2023-07-29T13:43:28;3.85;;;2.05;;
77214;SDS011;66210;53.282;9.864;2023-07-29T13:45:55;2.88;;;2.15;;
77214;SDS011;66210;53.282;9.864;2023-07-29T13:48:22;2.28;;;1.90;;
77214;SDS011;66210;53.282;9.864;2023-07-29T13:50:48;3.92;;;2.10;;
77214;SDS011;66210;53.282;9.864;2023-07-29T13:53:15;3.95;;;2.30;;
77214;SDS011;66210;53.282;9.864;2023-07-29T13:55:42;4.45;;;2.00;;
77214;SDS011;66210;53.282;9.864;2023-07-29T13:58:09;3.15;;;2.20;;
77214;SDS011;66210;53.282;9.864;2023-07-29T14:00:36;5.00;;;2.10;;
77214;SDS011;66210;53.282;9.864;2023-07-29T14:03:02;2.90;;;2.03;;
77214;SDS011;66210;53.282;9.864;2023-07-29T14:05:29;3.15;;;2.20;;
77214;SDS011;66210;53.282;9.864;2023-07-29T14:07:56;3.15;;;2.00;;
77214;SDS011;66210;53.282;9.864;2023-07-29T14:10:23;4.53;;;2.22;;
77214;SDS011;66210;53.282;9.864;2023-07-29T14:12:51;4.00;;;2.10;;
77214;SDS011;66210;53.282;9.864;2023-07-29T14:15:17;2.67;;;1.98;;
77214;SDS011;66210;53.282;9.864;2023-07-29T14:17:45;3.63;;;1.80;;
77214;SDS011;66210;53.282;9.864;2023-07-29T14:20:11;3.28;;;2.13;;
77214;SDS011;66210;53.282;9.864;2023-07-29T14:22:38;3.70;;;2.10;;
77214;SDS011;66210;53.282;9.864;2023-07-29T14:25:05;2.97;;;1.90;;
77214;SDS011;66210;53.282;9.864;2023-07-29T14:27:33;3.25;;;1.95;;
77214;SDS011;66210;53.282;9.864;2023-07-29T14:30:00;4.63;;;2.20;;
77214;SDS011;66210;53.282;9.864;2023-07-29T14:32:26;5.25;;;2.00;;
77214;SDS011;66210;53.282;9.864;2023-07-29T14:34:53;4.68;;;1.95;;
77214;SDS011;66210;53.282;9.864;2023-07-29T14:37:20;5.88;;;1.92;;
77214;SDS011;66210;53.282;9.864;2023-07-29T14:39:47;2.35;;;1.70;;
77214;SDS011;66210;53.282;9.864;2023-07-29T14:42:14;2.38;;;1.98;;
77214;SDS011;66210;53.282;9.864;2023-07-29T14:44:42;2.30;;;1.73;;
77214;SDS011;66210;53.282;9.864;2023-07-29T14:47:09;4.03;;;2.05;;
77214;SDS011;66210;53.282;9.864;2023-07-29T14:49:35;4.00;;;2.10;;
77214;SDS011;66210;53.282;9.864;2023-07-29T14:52:02;2.22;;;1.80;;
77214;SDS011;66210;53.282;9.864;2023-07-29T14:54:29;2.58;;;1.77;;
77214;SDS011;66210;53.282;9.864;2023-07-29T14:56:57;4.72;;;1.90;;
77214;SDS011;66210;53.282;9.864;2023-07-29T14:59:23;4.13;;;2.08;;
77214;SDS011;66210;53.282;9.864;2023-07-29T15:01:50;2.72;;;1.80;;
77214;SDS011;66210;53.282;9.864;2023-07-29T15:04:17;3.30;;;2.00;;
77214;SDS011;66210;53.282;9.864;2023-07-29T15:06:44;2.95;;;1.90;;